sensor_id;sensor_type;location;lat;lon;timestamp;pressure;altitude;pressure_sealevel;temperature;humidity
75188;BME280;63762;51.334;22.108;2024-02-26T00:04:03;100947.09;;;10.97;73.81
75188;BME280;63762;51.334;22.108;2024-02-26T00:14:09;100947.57;;;11.02;73.46
75188;BME280;63762;51.334;22.108;2024-02-26T00:24:16;100940.24;;;11.04;73.25
75188;BME280;63762;51.334;22.108;2024-02-26T00:34:23;100942.19;;;11.02;73.14
75188;BME280;63762;51.334;22.108;2024-02-26T00:44:30;100940.60;;;10.99;73.00
75188;BME280;63762;51.334;22.108;2024-02-26T00:54:37;100924.80;;;10.95;73.02
75188;BME280;63762;51.334;22.108;2024-02-26T01:04:45;100920.99;;;10.86;73.23
75188;BME280;63762;51.334;22.108;2024-02-26T01:14:51;100925.66;;;10.84;73.26
75188;BME280;63762;51.334;22.108;2024-02-26T01:24:59;100919.65;;;10.81;73.32
75188;BME280;63762;51.334;22.108;2024-02-26T01:35:06;100902.02;;;10.77;73.52
75188;BME280;63762;51.334;22.108;2024-02-26T01:45:16;100924.52;;;10.76;73.73
75188;BME280;63762;51.334;22.108;2024-02-26T01:55:26;100903.48;;;10.70;73.99
75188;BME280;63762;51.334;22.108;2024-02-26T02:05:29;100897.70;;;10.63;74.75
75188;BME280;63762;51.334;22.108;2024-02-26T02:15:34;100904.88;;;10.52;75.86
75188;BME280;63762;51.334;22.108;2024-02-26T02:25:41;100926.63;;;10.49;76.41
75188;BME280;63762;51.334;22.108;2024-02-26T02:35:48;100916.56;;;10.40;77.15
75188;BME280;63762;51.334;22.108;2024-02-26T02:45:56;100923.39;;;10.33;78.00
75188;BME280;63762;51.334;22.108;2024-02-26T02:56:03;100922.25;;;10.24;79.17
75188;BME280;63762;51.334;22.108;2024-02-26T03:06:10;100924.86;;;10.37;78.86
75188;BME280;63762;51.334;22.108;2024-02-26T03:16:17;100914.34;;;10.34;79.34
75188;BME280;63762;51.334;22.108;2024-02-26T03:26:24;100916.91;;;10.35;79.10
75188;BME280;63762;51.334;22.108;2024-02-26T03:36:31;100931.57;;;10.31;79.41
75188;BME280;63762;51.334;22.108;2024-02-26T03:46:38;100924.38;;;10.32;79.38
75188;BME280;63762;51.334;22.108;2024-02-26T03:56:45;100940.73;;;10.29;79.72
75188;BME280;63762;51.334;22.108;2024-02-26T04:06:53;100935.24;;;10.30;80.15
75188;BME280;63762;51.334;22.108;2024-02-26T04:17:00;100958.80;;;10.27;81.37
75188;BME280;63762;51.334;22.108;2024-02-26T04:27:07;100936.68;;;10.23;81.38
75188;BME280;63762;51.334;22.108;2024-02-26T04:37:14;100931.76;;;10.17;82.23
75188;BME280;63762;51.334;22.108;2024-02-26T04:47:21;100926.99;;;10.21;81.81
75188;BME280;63762;51.334;22.108;2024-02-26T04:57:28;100944.33;;;10.17;82.89
75188;BME280;63762;51.334;22.108;2024-02-26T05:07:42;100950.01;;;10.25;82.63
75188;BME280;63762;51.334;22.108;2024-02-26T05:17:44;100940.73;;;10.29;82.36
75188;BME280;63762;51.334;22.108;2024-02-26T05:27:50;100956.23;;;10.25;82.97
75188;BME280;63762;51.334;22.108;2024-02-26T05:37:57;100966.38;;;10.22;83.49
75188;BME280;63762;51.334;22.108;2024-02-26T05:48:04;100969.34;;;10.30;82.97
75188;BME280;63762;51.334;22.108;2024-02-26T05:58:11;100964.19;;;10.27;83.34
75188;BME280;63762;51.334;22.108;2024-02-26T06:08:18;100958.80;;;10.27;83.86
75188;BME280;63762;51.334;22.108;2024-02-26T06:18:25;100967.62;;;10.29;83.64
75188;BME280;63762;51.334;22.108;2024-02-26T06:28:32;100988.27;;;10.28;84.14
75188;BME280;63762;51.334;22.108;2024-02-26T06:38:39;100986.45;;;10.29;84.38
75188;BME280;63762;51.334;22.108;2024-02-26T06:51:55;100986.23;;;10.55;83.07
75188;BME280;63762;51.334;22.108;2024-02-26T07:02:02;101006.98;;;10.77;82.52
75188;BME280;63762;51.334;22.108;2024-02-26T07:12:09;101006.34;;;11.08;81.68
75188;BME280;63762;51.334;22.108;2024-02-26T07:22:16;101010.31;;;11.37;80.40
75188;BME280;63762;51.334;22.108;2024-02-26T07:32:23;101008.63;;;11.58;79.40
75188;BME280;63762;51.334;22.108;2024-02-26T07:42:31;101012.34;;;11.68;78.89
75188;BME280;63762;51.334;22.108;2024-02-26T07:52:38;101010.23;;;11.61;78.64
75188;BME280;63762;51.334;22.108;2024-02-26T08:02:45;101015.04;;;11.90;78.87
75188;BME280;63762;51.334;22.108;2024-02-26T08:12:52;101015.45;;;12.39;77.38
75188;BME280;63762;51.334;22.108;2024-02-26T08:22:59;101027.83;;;12.42;76.00
75188;BME280;63762;51.334;22.108;2024-02-26T08:33:06;101037.04;;;12.39;76.43
75188;BME280;63762;51.334;22.108;2024-02-26T08:43:13;101035.34;;;12.38;76.77
75188;BME280;63762;51.334;22.108;2024-02-26T08:53:21;101022.09;;;13.09;75.53
75188;BME280;63762;51.334;22.108;2024-02-26T09:03:28;101015.02;;;13.59;73.39
75188;BME280;63762;51.334;22.108;2024-02-26T09:13:35;101022.17;;;13.70;71.70
75188;BME280;63762;51.334;22.108;2024-02-26T09:23:42;101025.01;;;13.68;71.46
75188;BME280;63762;51.334;22.108;2024-02-26T09:33:49;101014.25;;;13.78;69.97
75188;BME280;63762;51.334;22.108;2024-02-26T09:43:57;101019.84;;;13.56;70.53
75188;BME280;63762;51.334;22.108;2024-02-26T09:54:03;101025.01;;;13.68;71.24
75188;BME280;63762;51.334;22.108;2024-02-26T10:04:11;101043.25;;;13.45;71.59
75188;BME280;63762;51.334;22.108;2024-02-26T10:14:17;101045.69;;;13.48;72.38
75188;BME280;63762;51.334;22.108;2024-02-26T10:24:25;101044.33;;;13.64;72.02
75188;BME280;63762;51.334;22.108;2024-02-26T10:34:32;101045.80;;;13.98;72.17
75188;BME280;63762;51.334;22.108;2024-02-26T10:44:40;101050.04;;;13.61;70.62
75188;BME280;63762;51.334;22.108;2024-02-26T10:54:47;101035.93;;;13.36;71.21
75188;BME280;63762;51.334;22.108;2024-02-26T11:04:53;101035.06;;;13.36;71.67
75188;BME280;63762;51.334;22.108;2024-02-26T11:15:00;101035.20;;;13.34;71.91
75188;BME280;63762;51.334;22.108;2024-02-26T11:25:08;101027.03;;;13.45;72.14
75188;BME280;63762;51.334;22.108;2024-02-26T11:35:16;101026.82;;;13.37;72.23
75188;BME280;63762;51.334;22.108;2024-02-26T11:55:35;101042.33;;;13.56;72.50
75188;BME280;63762;51.334;22.108;2024-02-26T12:05:36;101028.59;;;13.69;72.09
75188;BME280;63762;51.334;22.108;2024-02-26T12:15:44;101027.25;;;13.84;72.19
75188;BME280;63762;51.334;22.108;2024-02-26T12:25:50;101024.03;;;13.99;71.95
75188;BME280;63762;51.334;22.108;2024-02-26T12:35:57;101022.62;;;14.05;71.30
75188;BME280;63762;51.334;22.108;2024-02-26T12:46:04;101033.79;;;14.21;71.11
75188;BME280;63762;51.334;22.108;2024-02-26T12:56:12;101042.12;;;14.29;70.29
75188;BME280;63762;51.334;22.108;2024-02-26T13:06:19;101030.16;;;14.41;69.76
75188;BME280;63762;51.334;22.108;2024-02-26T13:16:26;101052.13;;;14.47;69.48
75188;BME280;63762;51.334;22.108;2024-02-26T13:26:33;101053.92;;;14.28;67.97
75188;BME280;63762;51.334;22.108;2024-02-26T13:36:40;101051.40;;;14.36;68.42
75188;BME280;63762;51.334;22.108;2024-02-26T13:46:47;101052.40;;;14.35;67.90
75188;BME280;63762;51.334;22.108;2024-02-26T13:56:55;101059.58;;;14.55;67.89
75188;BME280;63762;51.334;22.108;2024-02-26T14:07:02;101049.34;;;14.68;66.93
75188;BME280;63762;51.334;22.108;2024-02-26T14:17:08;101054.74;;;14.68;67.06
75188;BME280;63762;51.334;22.108;2024-02-26T14:27:16;101068.43;;;14.76;67.16
75188;BME280;63762;51.334;22.108;2024-02-26T14:37:23;101070.16;;;14.86;66.80
75188;BME280;63762;51.334;22.108;2024-02-26T14:47:30;101064.88;;;14.85;66.60
75188;BME280;63762;51.334;22.108;2024-02-26T14:57:37;101057.89;;;14.92;66.25
75188;BME280;63762;51.334;22.108;2024-02-26T15:07:44;101062.47;;;15.01;65.32
75188;BME280;63762;51.334;22.108;2024-02-26T15:17:51;101065.77;;;15.04;64.81
75188;BME280;63762;51.334;22.108;2024-02-26T15:27:58;101059.91;;;14.90;65.03
75188;BME280;63762;51.334;22.108;2024-02-26T15:38:05;101065.59;;;14.68;65.52
75188;BME280;63762;51.334;22.108;2024-02-26T15:48:13;101075.81;;;14.55;65.99
75188;BME280;63762;51.334;22.108;2024-02-26T15:58:20;101071.49;;;14.43;66.29
75188;BME280;63762;51.334;22.108;2024-02-26T16:08:27;101070.61;;;14.33;66.52
75188;BME280;63762;51.334;22.108;2024-02-26T16:18:35;101093.68;;;14.27;66.78
75188;BME280;63762;51.334;22.108;2024-02-26T16:28:41;101104.52;;;14.07;67.31
75188;BME280;63762;51.334;22.108;2024-02-26T16:38:48;101116.48;;;14.04;67.50
75188;BME280;63762;51.334;22.108;2024-02-26T16:48:55;101131.10;;;14.02;67.60
75188;BME280;63762;51.334;22.108;2024-02-26T16:59:03;101107.42;;;13.94;68.00
75188;BME280;63762;51.334;22.108;2024-02-26T17:09:10;101125.84;;;13.80;68.64
75188;BME280;63762;51.334;22.108;2024-02-26T17:19:17;101143.01;;;13.69;69.30
75188;BME280;63762;51.334;22.108;2024-02-26T17:29:24;101129.42;;;13.60;69.89
75188;BME280;63762;51.334;22.108;2024-02-26T17:39:31;101140.74;;;13.53;70.37
75188;BME280;63762;51.334;22.108;2024-02-26T17:49:39;101138.77;;;13.56;70.66
75188;BME280;63762;51.334;22.108;2024-02-26T17:59:45;101137.08;;;13.55;71.07
75188;BME280;63762;51.334;22.108;2024-02-26T18:09:52;101143.70;;;13.50;71.95
75188;BME280;63762;51.334;22.108;2024-02-26T18:19:59;101137.85;;;13.45;72.69
75188;BME280;63762;51.334;22.108;2024-02-26T18:30:07;101141.33;;;13.36;73.80
75188;BME280;63762;51.334;22.108;2024-02-26T18:40:14;101161.12;;;13.37;73.88
75188;BME280;63762;51.334;22.108;2024-02-26T18:50:21;101144.80;;;13.27;74.29
75188;BME280;63762;51.334;22.108;2024-02-26T19:00:28;101156.73;;;13.25;74.26
75188;BME280;63762;51.334;22.108;2024-02-26T19:10:35;101150.13;;;13.18;74.38
75188;BME280;63762;51.334;22.108;2024-02-26T19:20:42;101166.98;;;13.10;74.25
75188;BME280;63762;51.334;22.108;2024-02-26T19:30:49;101182.58;;;12.96;74.71
75188;BME280;63762;51.334;22.108;2024-02-26T19:40:56;101178.16;;;12.84;74.92
75188;BME280;63762;51.334;22.108;2024-02-26T19:51:04;101177.83;;;12.77;74.79
75188;BME280;63762;51.334;22.108;2024-02-26T20:01:11;101197.59;;;12.67;75.19
75188;BME280;63762;51.334;22.108;2024-02-26T20:11:18;101199.05;;;12.49;75.89
75188;BME280;63762;51.334;22.108;2024-02-26T20:21:25;101204.57;;;12.47;75.86
75188;BME280;63762;51.334;22.108;2024-02-26T20:31:32;101216.48;;;12.34;76.29
75188;BME280;63762;51.334;22.108;2024-02-26T20:41:39;101219.07;;;12.35;76.07
75188;BME280;63762;51.334;22.108;2024-02-26T20:51:46;101230.56;;;12.26;76.32
75188;BME280;63762;51.334;22.108;2024-02-26T21:01:53;101237.39;;;12.08;77.02
75188;BME280;63762;51.334;22.108;2024-02-26T21:12:01;101252.33;;;12.01;77.10
75188;BME280;63762;51.334;22.108;2024-02-26T21:22:08;101240.40;;;11.82;77.90
75188;BME280;63762;51.334;22.108;2024-02-26T21:32:15;101247.17;;;11.64;78.45
75188;BME280;63762;51.334;22.108;2024-02-26T21:42:22;101273.26;;;11.63;78.43
75188;BME280;63762;51.334;22.108;2024-02-26T21:52:29;101260.77;;;11.62;78.16
75188;BME280;63762;51.334;22.108;2024-02-26T22:02:36;101281.27;;;11.52;78.67
75188;BME280;63762;51.334;22.108;2024-02-26T22:12:43;101291.01;;;11.42;78.78
75188;BME280;63762;51.334;22.108;2024-02-26T22:22:50;101289.86;;;11.33;78.92
75188;BME280;63762;51.334;22.108;2024-02-26T22:32:58;101308.30;;;11.27;79.05
75188;BME280;63762;51.334;22.108;2024-02-26T22:43:05;101325.32;;;11.27;79.01
75188;BME280;63762;51.334;22.108;2024-02-26T22:53:12;101316.71;;;11.22;78.80
75188;BME280;63762;51.334;22.108;2024-02-26T23:03:19;101322.30;;;11.19;78.74
75188;BME280;63762;51.334;22.108;2024-02-26T23:13:27;101327.73;;;11.07;78.97
75188;BME280;63762;51.334;22.108;2024-02-26T23:23:33;101348.43;;;10.94;79.26
75188;BME280;63762;51.334;22.108;2024-02-26T23:33:40;101350.48;;;10.78;79.55
75188;BME280;63762;51.334;22.108;2024-02-26T23:43:47;101358.11;;;10.71;79.51
75188;BME280;63762;51.334;22.108;2024-02-26T23:53:55;101370.39;;;10.63;79.68
